Time;durP1;ratioP1;P1;durP2;ratioP2;P2;SDS_P1;SDS_P2;PMS_P1;PMS_P2;Temp;Humidity;BMP_temperature;BMP_pressure;BME280_temperature;BME280_humidity;BME280_pressure;Samples;Min_cycle;Max_cycle;Signal;HPM_P1;HPM_P2
2022/08/26 00:01:13;;;;;;;8.80;6.60;;;20.80;88.70;;;;;;5039290;28;20475;-69
2022/08/26 00:04:00;;;;;;;6.90;6.00;;;20.70;88.70;;;;;;5047691;28;20526;-69
2022/08/26 00:06:45;;;;;;;8.53;6.77;;;20.70;88.90;;;;;;5046904;28;20533;-69
2022/08/26 00:09:31;;;;;;;9.87;6.40;;;20.70;89.10;;;;;;5044391;28;20651;-70
2022/08/26 00:12:17;;;;;;;7.40;6.23;;;20.70;89.60;;;;;;5043503;28;20441;-70
2022/08/26 00:15:03;;;;;;;8.50;6.37;;;20.60;90.20;;;;;;5040376;28;20826;-70
2022/08/26 00:17:50;;;;;;;7.90;6.33;;;20.50;90.60;;;;;;5045469;28;20483;-69
2022/08/26 00:20:38;;;;;;;7.63;6.47;;;20.50;90.60;;;;;;5043069;28;20956;-69
2022/08/26 00:23:23;;;;;;;12.80;7.53;;;20.50;90.70;;;;;;5045938;28;20452;-70
2022/08/26 00:26:09;;;;;;;7.90;7.10;;;20.60;90.60;;;;;;5039886;28;20460;-69
2022/08/26 00:28:55;;;;;;;9.30;6.97;;;20.60;90.50;;;;;;5042793;28;20923;-70
2022/08/26 00:31:41;;;;;;;8.37;6.80;;;20.60;90.50;;;;;;5035904;28;20961;-70
2022/08/26 00:34:28;;;;;;;10.83;6.60;;;20.50;90.50;;;;;;5041333;28;21087;-70
2022/08/26 00:37:13;;;;;;;8.80;7.03;;;20.40;91.00;;;;;;5044219;28;21044;-69
2022/08/26 00:39:59;;;;;;;8.17;6.67;;;20.40;90.90;;;;;;5038486;28;21176;-69
2022/08/26 00:42:46;;;;;;;17.30;6.60;;;20.50;91.00;;;;;;5039125;28;20424;-70
2022/08/26 00:45:38;;;;;;;8.77;6.60;;;20.50;90.80;;;;;;5046223;28;20452;-69
2022/08/26 00:48:25;;;;;;;13.33;6.53;;;20.40;91.00;;;;;;5040327;28;20444;-70
2022/08/26 00:51:18;;;;;;;7.70;6.47;;;20.40;91.20;;;;;;5037166;28;20660;-70
2022/08/26 00:54:07;;;;;;;13.23;7.33;;;20.30;91.20;;;;;;5044220;28;20452;-70
2022/08/26 00:56:57;;;;;;;9.40;6.83;;;20.40;91.40;;;;;;5042803;28;20471;-70
2022/08/26 00:59:45;;;;;;;10.60;7.07;;;20.40;91.40;;;;;;5044680;28;20440;-69
2022/08/26 01:02:31;;;;;;;8.70;6.97;;;20.30;91.40;;;;;;5040066;28;20961;-69
2022/08/26 01:05:18;;;;;;;12.37;7.10;;;20.30;91.40;;;;;;5040262;28;20460;-69
2022/08/26 01:08:05;;;;;;;13.03;7.00;;;20.30;91.90;;;;;;5039251;28;20477;-69
2022/08/26 01:10:51;;;;;;;9.43;6.60;;;20.20;92.00;;;;;;5040307;28;20933;-69
2022/08/26 01:13:38;;;;;;;8.90;8.00;;;20.20;92.10;;;;;;5034829;28;20444;-69
2022/08/26 01:16:24;;;;;;;9.27;7.40;;;20.20;92.30;;;;;;5039333;28;20464;-70
2022/08/26 01:19:19;;;;;;;7.67;6.83;;;20.20;92.20;;;;;;5042102;28;21037;-69
2022/08/26 01:22:09;;;;;;;14.57;6.70;;;20.20;92.30;;;;;;5047160;28;20480;-70
2022/08/26 01:24:56;;;;;;;10.03;7.40;;;20.20;92.70;;;;;;5041364;28;20450;-70
2022/08/26 01:27:43;;;;;;;10.30;8.23;;;20.10;93.30;;;;;;5038394;28;20566;-69
2022/08/26 01:30:30;;;;;;;11.53;7.80;;;20.20;92.90;;;;;;5037476;28;20439;-69
2022/08/26 01:33:19;;;;;;;8.40;6.87;;;20.10;93.00;;;;;;5040750;28;20447;-70
2022/08/26 01:36:05;;;;;;;8.60;7.70;;;20.00;93.50;;;;;;5039577;28;20539;-70
2022/08/26 01:38:51;;;;;;;8.70;7.07;;;20.00;93.60;;;;;;5046806;28;20936;-69
2022/08/26 01:41:39;;;;;;;10.40;7.77;;;20.00;93.80;;;;;;5042495;28;20528;-70
2022/08/26 01:44:29;;;;;;;10.77;7.03;;;20.10;93.80;;;;;;5035599;28;20552;-70
2022/08/26 01:47:17;;;;;;;9.10;6.80;;;20.20;93.60;;;;;;5036583;28;20463;-69
2022/08/26 01:50:09;;;;;;;8.97;6.80;;;20.20;93.40;;;;;;5037841;28;20451;-69
2022/08/26 01:52:55;;;;;;;8.50;7.10;;;20.20;93.40;;;;;;5039729;28;20472;-69
2022/08/26 01:55:46;;;;;;;10.93;6.87;;;20.30;93.30;;;;;;5039794;28;20484;-69
2022/08/26 01:58:36;;;;;;;10.87;7.27;;;20.30;93.20;;;;;;5038973;28;20586;-70
2022/08/26 02:01:23;;;;;;;9.03;7.43;;;20.30;92.90;;;;;;5038677;28;20479;-69
2022/08/26 02:04:17;;;;;;;14.70;7.33;;;20.30;93.00;;;;;;5043275;28;20442;-70
2022/08/26 02:07:05;;;;;;;11.37;7.20;;;20.40;93.00;;;;;;5040341;28;21123;-69
2022/08/26 02:09:50;;;;;;;11.90;6.93;;;20.40;92.90;;;;;;5043650;28;20548;-70
2022/08/26 02:12:37;;;;;;;8.70;7.57;;;20.40;92.70;;;;;;5044409;28;20763;-70
2022/08/26 02:15:24;;;;;;;8.80;7.43;;;20.20;92.90;;;;;;5044168;28;20448;-70
2022/08/26 02:18:11;;;;;;;12.13;6.93;;;20.10;93.30;;;;;;5035484;28;20917;-69
2022/08/26 02:20:57;;;;;;;9.50;6.90;;;20.10;93.20;;;;;;5047627;28;20467;-70
2022/08/26 02:23:44;;;;;;;10.73;7.73;;;20.10;93.10;;;;;;5036842;28;20444;-70
2022/08/26 02:26:29;;;;;;;7.60;6.63;;;20.00;93.30;;;;;;5044673;28;20472;-70
2022/08/26 02:29:21;;;;;;;8.67;7.23;;;19.90;93.70;;;;;;5034938;28;20584;-70
2022/08/26 02:32:09;;;;;;;10.43;8.23;;;19.80;94.00;;;;;;5040570;28;20972;-70
2022/08/26 02:34:55;;;;;;;9.80;7.97;;;19.80;94.20;;;;;;5041107;28;20463;-69
2022/08/26 02:37:41;;;;;;;8.00;6.97;;;19.70;94.90;;;;;;5039716;28;20470;-70
2022/08/26 02:40:32;;;;;;;13.43;8.70;;;19.70;95.60;;;;;;5042091;28;20813;-69
2022/08/26 02:43:18;;;;;;;18.00;8.50;;;19.70;96.00;;;;;;5041453;28;20447;-69
2022/08/26 02:46:04;;;;;;;23.33;8.37;;;19.60;96.70;;;;;;5041475;28;20617;-70
2022/08/26 02:48:51;;;;;;;10.03;7.77;;;19.70;96.70;;;;;;5038150;28;20441;-69
2022/08/26 02:51:37;;;;;;;12.70;8.60;;;19.80;97.00;;;;;;5037125;28;20476;-70
2022/08/26 02:54:23;;;;;;;9.50;8.07;;;19.80;97.10;;;;;;5042258;28;20452;-70
2022/08/26 02:57:10;;;;;;;9.20;7.57;;;20.00;96.70;;;;;;5035778;28;20460;-70
2022/08/26 02:59:56;;;;;;;8.83;7.30;;;20.10;96.50;;;;;;5039871;28;20517;-70
2022/08/26 03:02:41;;;;;;;15.50;7.90;;;20.10;96.30;;;;;;5042729;28;20468;-70
2022/08/26 03:05:28;;;;;;;7.97;7.07;;;20.20;96.20;;;;;;5045795;28;20494;-70
2022/08/26 03:08:14;;;;;;;12.60;7.53;;;20.30;96.00;;;;;;5038202;28;20557;-70
2022/08/26 03:11:00;;;;;;;9.50;7.37;;;20.20;96.00;;;;;;5039734;28;21023;-69
2022/08/26 03:13:46;;;;;;;9.97;7.07;;;20.10;96.20;;;;;;5040316;28;21396;-71
2022/08/26 03:16:32;;;;;;;11.40;7.90;;;20.10;96.30;;;;;;5048416;28;20526;-70
2022/08/26 03:19:18;;;;;;;11.20;7.40;;;20.00;96.50;;;;;;5040212;28;20444;-70
2022/08/26 03:22:06;;;;;;;13.07;8.27;;;20.00;96.60;;;;;;5039019;28;21008;-70
2022/08/26 03:24:51;;;;;;;12.57;7.77;;;19.80;97.00;;;;;;5045136;28;20529;-71
2022/08/26 03:27:37;;;;;;;13.07;9.10;;;19.70;97.30;;;;;;5037107;28;20472;-70
2022/08/26 03:30:40;;;;;;;13.37;9.40;;;19.60;97.70;;;;;;5039532;28;20466;-70
2022/08/26 03:33:26;;;;;;;12.13;8.83;;;19.60;98.20;;;;;;5040552;28;20457;-70
2022/08/26 03:36:12;;;;;;;17.53;10.47;;;19.60;98.30;;;;;;5045200;28;20891;-70
2022/08/26 03:38:59;;;;;;;19.27;11.30;;;19.50;98.50;;;;;;5049187;28;20824;-70
2022/08/26 03:41:45;;;;;;;15.37;11.17;;;19.50;99.00;;;;;;5042850;28;20626;-70
2022/08/26 03:44:31;;;;;;;16.70;9.63;;;19.50;99.10;;;;;;5040196;28;20447;-70
2022/08/26 03:47:16;;;;;;;15.93;9.80;;;19.50;99.50;;;;;;5043854;28;20467;-71
2022/08/26 03:50:02;;;;;;;19.43;9.83;;;19.60;99.40;;;;;;5042650;28;20661;-70
2022/08/26 03:52:48;;;;;;;15.93;10.77;;;19.70;99.50;;;;;;5045128;28;20439;-71
2022/08/26 03:55:36;;;;;;;17.10;10.03;;;19.80;99.40;;;;;;5045384;28;20570;-71
2022/08/26 03:58:23;;;;;;;16.97;10.20;;;19.80;99.50;;;;;;5043560;28;20489;-70
2022/08/26 04:01:08;;;;;;;22.07;11.20;;;19.90;99.30;;;;;;5036372;28;20642;-70
2022/08/26 04:04:00;;;;;;;18.23;10.00;;;19.90;99.10;;;;;;5038990;28;20456;-70
2022/08/26 04:06:46;;;;;;;23.00;12.37;;;19.90;98.90;;;;;;5040625;28;20475;-70
2022/08/26 04:09:32;;;;;;;24.83;12.50;;;19.90;98.90;;;;;;5050138;28;20442;-69
2022/08/26 04:12:19;;;;;;;21.83;12.80;;;19.80;99.30;;;;;;5039918;28;20494;-70
2022/08/26 04:15:06;;;;;;;26.30;13.70;;;19.80;99.60;;;;;;5042976;28;20471;-70
2022/08/26 04:17:52;;;;;;;20.67;12.20;;;19.90;99.20;;;;;;5044256;28;20505;-69
2022/08/26 04:20:38;;;;;;;23.33;13.20;;;20.00;99.00;;;;;;5040950;28;20442;-70
2022/08/26 04:23:23;;;;;;;26.27;12.40;;;20.10;99.00;;;;;;5040755;28;20437;-70
2022/08/26 04:26:09;;;;;;;28.80;14.60;;;20.20;99.00;;;;;;5045799;28;20466;-70
2022/08/26 04:28:56;;;;;;;25.60;15.57;;;20.20;98.50;;;;;;5042534;28;20467;-70
2022/08/26 04:31:42;;;;;;;32.57;17.93;;;20.10;98.60;;;;;;5043198;28;20443;-70
2022/08/26 04:34:28;;;;;;;41.83;20.10;;;20.00;98.70;;;;;;5049764;28;20455;-70
2022/08/26 04:37:14;;;;;;;43.63;20.10;;;19.90;98.90;;;;;;5046739;28;20505;-70
2022/08/26 04:39:59;;;;;;;43.73;22.17;;;19.90;98.90;;;;;;5038295;28;20831;-70
2022/08/26 04:42:45;;;;;;;44.10;20.80;;;19.90;98.90;;;;;;5037383;28;20843;-69
2022/08/26 04:45:35;;;;;;;36.80;20.00;;;19.80;99.30;;;;;;5038603;28;20444;-70
2022/08/26 04:48:20;;;;;;;40.40;20.90;;;19.80;99.40;;;;;;5038854;28;20461;-70
2022/08/26 04:51:06;;;;;;;37.60;22.50;;;19.70;99.40;;;;;;5039293;28;20517;-71
2022/08/26 04:53:53;;;;;;;39.57;21.43;;;19.70;99.60;;;;;;5044070;28;20454;-70
2022/08/26 04:56:41;;;;;;;49.70;23.23;;;19.60;99.90;;;;;;5042398;28;20471;-70
2022/08/26 04:59:26;;;;;;;42.33;24.97;;;19.60;99.90;;;;;;5046035;28;20914;-70
2022/08/26 05:02:14;;;;;;;54.97;26.83;;;19.50;99.90;;;;;;5054117;28;20467;-70
2022/08/26 05:05:00;;;;;;;45.63;26.70;;;19.60;99.90;;;;;;5049375;28;20636;-70
2022/08/26 05:07:45;;;;;;;55.33;25.20;;;19.60;99.90;;;;;;5068511;22;21010;-75
2022/08/26 05:10:33;;;;;;;52.57;27.70;;;19.60;99.90;;;;;;5063737;28;20533;-75
2022/08/26 05:13:20;;;;;;;62.90;30.77;;;19.70;99.90;;;;;;5067113;28;20454;-75
2022/08/26 05:16:08;;;;;;;56.47;30.07;;;19.80;99.90;;;;;;5061550;28;20451;-72
2022/08/26 05:18:55;;;;;;;52.57;29.20;;;19.80;99.90;;;;;;5046476;28;20451;-75
2022/08/26 05:21:43;;;;;;;51.57;29.53;;;19.90;99.90;;;;;;5049318;28;21094;-74
2022/08/26 05:24:29;;;;;;;37.23;21.30;;;20.00;99.90;;;;;;5045343;28;20459;-72
2022/08/26 05:27:15;;;;;;;53.07;30.40;;;20.20;99.90;;;;;;5042619;28;20468;-74
2022/08/26 05:30:00;;;;;;;47.17;24.43;;;20.20;99.90;;;;;;5046470;28;21013;-75
2022/08/26 05:32:48;;;;;;;46.17;22.27;;;20.20;99.90;;;;;;5046358;28;20521;-75
2022/08/26 05:35:37;;;;;;;42.30;23.73;;;20.30;99.90;;;;;;5044941;28;20566;-74
2022/08/26 05:38:22;;;;;;;53.00;28.63;;;20.30;99.90;;;;;;5044225;28;20827;-74
2022/08/26 05:41:15;;;;;;;58.57;31.57;;;20.30;99.90;;;;;;5045306;28;20979;-76
2022/08/26 05:44:02;;;;;;;45.57;25.90;;;20.40;99.90;;;;;;5043780;28;20858;-75
2022/08/26 05:46:48;;;;;;;56.67;26.13;;;20.40;99.90;;;;;;5042295;28;20979;-74
2022/08/26 05:49:34;;;;;;;50.03;29.03;;;20.50;99.90;;;;;;5045722;28;20997;-74
2022/08/26 05:52:21;;;;;;;52.60;25.00;;;20.60;99.90;;;;;;5046367;28;20805;-75
2022/08/26 05:55:07;;;;;;;42.77;24.43;;;20.60;99.90;;;;;;5044265;28;20448;-74
2022/08/26 05:57:53;;;;;;;54.83;25.67;;;20.70;99.90;;;;;;5039595;28;20989;-75
2022/08/26 06:00:39;;;;;;;47.43;25.13;;;20.70;99.90;;;;;;5046815;28;20443;-75
2022/08/26 06:03:25;;;;;;;44.33;25.10;;;20.70;99.90;;;;;;5043485;28;20467;-75
2022/08/26 06:06:13;;;;;;;38.60;22.73;;;20.80;99.90;;;;;;5040389;28;20458;-75
2022/08/26 06:09:02;;;;;;;39.73;24.20;;;20.80;99.90;;;;;;5044474;28;20553;-75
2022/08/26 06:11:48;;;;;;;41.27;21.43;;;20.80;99.90;;;;;;5045674;28;20440;-75
2022/08/26 06:14:34;;;;;;;49.40;24.63;;;20.80;99.90;;;;;;5045295;28;20984;-74
2022/08/26 06:17:20;;;;;;;45.10;24.57;;;20.90;99.90;;;;;;5043043;28;20999;-74
2022/08/26 06:20:07;;;;;;;59.13;24.37;;;21.00;99.90;;;;;;5045417;28;20452;-75
2022/08/26 06:25:58;;;;;;;74.60;29.27;;;21.10;99.90;;;;;;5043924;28;20467;-75
2022/08/26 06:28:44;;;;;;;70.83;28.90;;;21.10;99.80;;;;;;5045430;28;20455;-75
2022/08/26 06:31:32;;;;;;;70.43;32.73;;;21.10;99.90;;;;;;5043316;28;20545;-75
2022/08/26 06:34:18;;;;;;;78.07;30.53;;;21.10;99.90;;;;;;5045174;28;20969;-75
2022/08/26 06:37:04;;;;;;;62.57;25.70;;;21.10;99.90;;;;;;5043908;28;20536;-75
2022/08/26 06:39:50;;;;;;;69.70;27.73;;;21.00;99.90;;;;;;5038690;28;20428;-75
2022/08/26 06:42:37;;;;;;;58.87;28.60;;;21.10;99.90;;;;;;5051716;28;20542;-75
2022/08/26 06:45:23;;;;;;;51.70;24.20;;;21.10;99.90;;;;;;5046429;28;20838;-75
2022/08/26 06:48:08;;;;;;;66.27;28.63;;;21.20;99.90;;;;;;5045557;28;20809;-75
2022/08/26 06:51:03;;;;;;;66.40;27.27;;;21.30;99.90;;;;;;5042940;28;20470;-75
2022/08/26 06:53:51;;;;;;;64.90;27.80;;;21.40;99.90;;;;;;5046647;28;20930;-75
2022/08/26 06:56:39;;;;;;;53.13;24.23;;;21.40;99.90;;;;;;5041347;28;20463;-75
2022/08/26 06:59:26;;;;;;;53.30;24.30;;;21.50;99.90;;;;;;5042282;28;20495;-75
2022/08/26 07:02:12;;;;;;;41.80;20.93;;;21.70;99.90;;;;;;5044771;28;20619;-74
2022/08/26 07:04:58;;;;;;;38.10;19.27;;;21.90;99.90;;;;;;5048956;28;20583;-75
2022/08/26 07:07:43;;;;;;;31.13;19.20;;;22.10;99.70;;;;;;5044761;28;20459;-74
2022/08/26 07:10:30;;;;;;;31.77;16.97;;;22.30;99.80;;;;;;5047830;28;20810;-74
2022/08/26 07:13:15;;;;;;;26.93;14.93;;;22.50;99.20;;;;;;5048374;28;20439;-74
2022/08/26 07:16:04;;;;;;;17.20;12.20;;;22.80;98.40;;;;;;5043584;28;20557;-74
2022/08/26 07:18:51;;;;;;;19.07;13.00;;;23.00;96.90;;;;;;5048497;28;20439;-75
2022/08/26 07:21:39;;;;;;;21.17;13.30;;;23.20;96.50;;;;;;5047659;28;20463;-75
2022/08/26 07:24:24;;;;;;;19.50;11.10;;;23.40;95.90;;;;;;5045443;28;20455;-75
2022/08/26 07:27:16;;;;;;;17.00;10.43;;;23.60;94.90;;;;;;5049480;28;20463;-75
2022/08/26 07:30:03;;;;;;;14.50;9.80;;;23.90;94.10;;;;;;5044793;28;20459;-74
2022/08/26 07:32:50;;;;;;;16.03;10.57;;;24.00;92.00;;;;;;5047887;28;20549;-75
2022/08/26 07:35:35;;;;;;;16.87;11.10;;;24.20;91.40;;;;;;5043383;28;20447;-74
2022/08/26 07:38:21;;;;;;;13.30;8.73;;;24.40;91.50;;;;;;5045989;28;20548;-75
2022/08/26 07:41:07;;;;;;;20.33;10.33;;;24.50;90.60;;;;;;5046810;28;20971;-74
2022/08/26 07:43:54;;;;;;;10.90;9.07;;;24.70;86.20;;;;;;5048903;28;20854;-75
2022/08/26 07:46:39;;;;;;;19.73;9.47;;;24.80;81.70;;;;;;5044465;28;20535;-74
2022/08/26 07:49:27;;;;;;;21.73;8.93;;;25.10;78.70;;;;;;5047423;28;20470;-75
2022/08/26 07:52:12;;;;;;;14.07;9.90;;;25.20;75.40;;;;;;5051219;28;20462;-74
2022/08/26 07:55:00;;;;;;;11.70;8.83;;;25.20;71.90;;;;;;5047472;28;20589;-74
2022/08/26 07:57:46;;;;;;;13.60;9.03;;;25.20;69.40;;;;;;5043696;28;20734;-74
2022/08/26 08:00:33;;;;;;;11.97;8.30;;;25.20;69.90;;;;;;5049138;28;20451;-74
2022/08/26 08:03:19;;;;;;;10.40;7.10;;;25.30;67.40;;;;;;5044548;28;20830;-75
2022/08/26 08:06:07;;;;;;;10.17;8.30;;;25.40;67.10;;;;;;5048849;28;21035;-74
2022/08/26 08:08:53;;;;;;;8.73;6.60;;;25.50;64.40;;;;;;5052999;28;21042;-74
2022/08/26 08:11:39;;;;;;;12.10;8.03;;;25.60;61.40;;;;;;5047570;28;20606;-74
2022/08/26 08:14:24;;;;;;;12.47;7.73;;;25.60;63.40;;;;;;5038450;28;20423;-73
2022/08/26 08:17:10;;;;;;;15.03;7.63;;;25.60;62.10;;;;;;5046404;28;20801;-74
2022/08/26 08:19:56;;;;;;;11.23;7.83;;;25.60;63.90;;;;;;5047308;28;20440;-74
2022/08/26 08:22:43;;;;;;;10.60;7.37;;;25.70;62.20;;;;;;5041858;28;21004;-74
2022/08/26 08:25:29;;;;;;;13.23;8.10;;;25.70;62.00;;;;;;5045244;28;20482;-74
2022/08/26 08:28:14;;;;;;;21.60;12.33;;;25.70;60.90;;;;;;5051436;28;20472;-74
2022/08/26 08:31:00;;;;;;;10.60;7.87;;;25.70;62.00;;;;;;5048825;28;20467;-74
2022/08/26 08:33:46;;;;;;;9.93;7.67;;;25.70;63.10;;;;;;5049729;28;20807;-73
2022/08/26 08:36:33;;;;;;;10.77;7.87;;;25.70;61.50;;;;;;5048153;28;20995;-74
2022/08/26 08:39:20;;;;;;;11.83;8.90;;;25.70;62.10;;;;;;5046550;28;20423;-75
2022/08/26 08:42:27;;;;;;;12.70;7.60;;;25.70;61.30;;;;;;5050980;28;20451;-74
2022/08/26 08:45:16;;;;;;;9.70;7.20;;;25.80;61.40;;;;;;5043959;28;20522;-74
2022/08/26 08:48:05;;;;;;;17.00;7.90;;;25.80;61.60;;;;;;5046970;28;20557;-74
2022/08/26 08:50:53;;;;;;;10.37;7.47;;;25.80;61.60;;;;;;5047328;28;21039;-74
2022/08/26 08:53:43;;;;;;;20.67;9.20;;;25.80;60.10;;;;;;5047955;28;20455;-74
2022/08/26 08:56:33;;;;;;;16.60;7.20;;;25.80;60.10;;;;;;5046387;28;20562;-74
2022/08/26 08:59:21;;;;;;;8.90;6.90;;;25.80;59.30;;;;;;5049132;28;20444;-74
2022/08/26 09:02:17;;;;;;;10.30;7.67;;;25.80;57.90;;;;;;5046808;28;20458;-73
2022/08/26 09:05:09;;;;;;;16.93;6.80;;;25.80;57.20;;;;;;5041398;28;20616;-73
2022/08/26 09:08:01;;;;;;;14.63;6.50;;;25.80;57.00;;;;;;5048318;28;20483;-74
2022/08/26 09:10:52;;;;;;;9.73;6.17;;;26.00;54.50;;;;;;5044208;28;20444;-74
2022/08/26 09:13:43;;;;;;;7.70;6.50;;;26.10;52.50;;;;;;5046266;28;20452;-74
2022/08/26 09:16:40;;;;;;;16.10;6.00;;;26.20;51.90;;;;;;5045104;28;20562;-74
2022/08/26 09:19:30;;;;;;;8.77;6.30;;;26.30;51.50;;;;;;5045726;28;20988;-74
2022/08/26 09:22:29;;;;;;;8.37;6.67;;;26.30;51.60;;;;;;5048827;28;20455;-74
2022/08/26 09:25:16;;;;;;;12.23;8.00;;;26.30;53.20;;;;;;5039624;28;20458;-73
2022/08/26 09:28:02;;;;;;;9.70;6.47;;;26.20;53.20;;;;;;5044606;28;20878;-74
2022/08/26 09:31:01;;;;;;;11.00;6.70;;;26.10;53.70;;;;;;5046633;28;20965;-74
2022/08/26 09:33:46;;;;;;;8.23;6.27;;;26.20;54.20;;;;;;5044924;28;20447;-74
2022/08/26 09:36:37;;;;;;;13.80;7.70;;;26.20;53.30;;;;;;5045227;28;20447;-73
2022/08/26 09:39:33;;;;;;;10.53;7.30;;;26.30;53.50;;;;;;5046698;28;20468;-73
2022/08/26 09:42:24;;;;;;;13.60;6.93;;;26.30;54.00;;;;;;5043211;28;20448;-74
2022/08/26 09:45:11;;;;;;;11.33;6.97;;;26.30;51.70;;;;;;5043485;28;20451;-74
2022/08/26 09:47:59;;;;;;;12.77;6.40;;;26.30;52.50;;;;;;5047695;28;20696;-74
2022/08/26 09:50:53;;;;;;;10.83;6.30;;;26.30;51.20;;;;;;5045910;28;20451;-74
2022/08/26 09:53:51;;;;;;;9.00;7.40;;;26.30;51.20;;;;;;5039768;28;20463;-73
2022/08/26 09:56:39;;;;;;;9.70;7.17;;;26.20;50.00;;;;;;5042258;28;20483;-74
2022/08/26 09:59:30;;;;;;;11.70;7.53;;;26.20;51.00;;;;;;5046829;28;20585;-74
2022/08/26 10:02:27;;;;;;;10.23;6.50;;;26.30;51.30;;;;;;5047719;28;20455;-75
2022/08/26 10:05:26;;;;;;;18.57;6.50;;;26.30;55.70;;;;;;5043484;28;20704;-75
2022/08/26 10:08:23;;;;;;;11.23;7.57;;;26.30;53.10;;;;;;5045118;28;21355;-74
2022/08/26 10:11:17;;;;;;;9.70;7.30;;;26.30;53.60;;;;;;5043458;28;20452;-74
2022/08/26 10:14:09;;;;;;;8.17;6.33;;;26.40;53.70;;;;;;5037508;28;20440;-74
2022/08/26 10:17:00;;;;;;;16.73;7.83;;;26.40;52.10;;;;;;5046387;28;20472;-74
2022/08/26 10:19:54;;;;;;;15.00;6.80;;;26.40;53.20;;;;;;5042053;28;20820;-74
2022/08/26 10:22:46;;;;;;;18.90;8.13;;;26.40;53.80;;;;;;5044129;28;20455;-74
2022/08/26 10:25:34;;;;;;;10.00;6.20;;;26.40;51.60;;;;;;5048902;28;20502;-72
2022/08/26 10:28:26;;;;;;;23.93;7.53;;;26.40;53.50;;;;;;5045165;28;20591;-72
2022/08/26 10:31:25;;;;;;;12.60;6.90;;;26.50;54.70;;;;;;5045734;28;20859;-72
2022/08/26 10:34:12;;;;;;;13.87;6.30;;;26.50;54.30;;;;;;5041621;28;20829;-72
2022/08/26 10:37:03;;;;;;;9.87;6.10;;;26.70;52.90;;;;;;5046069;28;20981;-71
2022/08/26 10:39:59;;;;;;;8.40;5.50;;;27.00;53.20;;;;;;5045664;28;20874;-71
2022/08/26 10:42:50;;;;;;;8.53;5.90;;;27.20;52.00;;;;;;5045272;28;20459;-73
2022/08/26 10:45:38;;;;;;;13.50;5.63;;;27.40;50.90;;;;;;5047135;28;20446;-73
2022/08/26 10:48:32;;;;;;;7.70;6.03;;;27.50;50.30;;;;;;5047467;28;20471;-74
2022/08/26 10:51:22;;;;;;;8.10;5.60;;;27.60;50.60;;;;;;5044473;28;20921;-74
2022/08/26 10:54:14;;;;;;;6.77;5.67;;;27.70;49.10;;;;;;5042338;28;20455;-75
2022/08/26 10:57:08;;;;;;;9.23;5.50;;;27.70;47.20;;;;;;5039519;28;20470;-75
2022/08/26 10:59:59;;;;;;;8.83;6.30;;;27.70;47.10;;;;;;5048436;28;21150;-75
2022/08/26 11:02:49;;;;;;;14.43;5.87;;;27.60;48.30;;;;;;5046277;28;20435;-74
2022/08/26 11:05:34;;;;;;;8.00;5.10;;;27.60;49.20;;;;;;5044676;28;20463;-75
2022/08/26 11:08:30;;;;;;;7.93;5.80;;;27.50;49.30;;;;;;5070364;22;20494;-70
2022/08/26 11:11:51;;;;;;;15.97;6.50;;;27.40;49.00;;;;;;5062192;28;20489;-70
2022/08/26 11:14:39;;;;;;;11.33;6.90;;;27.30;51.20;;;;;;5061702;28;20968;-70
2022/08/26 11:17:56;;;;;;;6.80;5.47;;;27.30;50.10;;;;;;5060849;28;20467;-70
2022/08/26 11:20:44;;;;;;;8.50;5.10;;;27.50;51.40;;;;;;5059945;28;20455;-70
2022/08/26 11:23:44;;;;;;;9.63;4.87;;;27.70;50.20;;;;;;5063109;28;20888;-70
2022/08/26 11:26:36;;;;;;;7.17;5.80;;;27.90;48.90;;;;;;5063170;28;20442;-70
2022/08/26 11:29:58;;;;;;;10.33;5.43;;;28.30;47.60;;;;;;5064000;28;20438;-70
2022/08/26 11:32:49;;;;;;;6.93;5.50;;;28.50;46.60;;;;;;5062120;28;20800;-70
2022/08/26 11:35:50;;;;;;;6.80;5.63;;;28.70;43.50;;;;;;5063116;28;20439;-70
2022/08/26 11:38:41;;;;;;;7.40;5.60;;;28.80;43.90;;;;;;5064753;28;20994;-70
2022/08/26 11:41:28;;;;;;;8.63;6.17;;;29.00;43.60;;;;;;5064543;28;20445;-70
2022/08/26 11:44:19;;;;;;;7.40;5.77;;;29.10;42.90;;;;;;5059694;28;20467;-70
2022/08/26 11:47:09;;;;;;;9.60;6.10;;;29.20;40.60;;;;;;5065331;28;20462;-70
2022/08/26 11:50:14;;;;;;;6.30;5.50;;;29.30;41.70;;;;;;5065619;28;20463;-70
2022/08/26 11:53:03;;;;;;;6.97;6.00;;;29.30;40.80;;;;;;5061633;28;20581;-70
2022/08/26 11:55:51;;;;;;;10.27;6.40;;;29.50;41.10;;;;;;5060127;28;20590;-71
2022/08/26 11:58:43;;;;;;;13.60;6.60;;;29.70;40.60;;;;;;5065580;28;21090;-71
2022/08/26 12:01:31;;;;;;;9.87;5.77;;;30.00;39.00;;;;;;5067664;28;20459;-71
2022/08/26 12:04:27;;;;;;;11.00;5.97;;;30.20;38.30;;;;;;5060841;28;20501;-71
2022/08/26 12:07:13;;;;;;;9.63;5.93;;;30.50;38.20;;;;;;5066317;28;21112;-71
2022/08/26 12:10:01;;;;;;;12.77;5.97;;;30.40;36.50;;;;;;5066019;28;21191;-71
2022/08/26 12:12:55;;;;;;;10.10;6.57;;;30.40;36.30;;;;;;5065783;28;20801;-71
2022/08/26 12:15:40;;;;;;;10.57;6.60;;;30.30;34.90;;;;;;5062342;28;20947;-71
2022/08/26 12:18:29;;;;;;;7.80;6.60;;;30.30;34.80;;;;;;5066435;28;20466;-71
2022/08/26 12:21:22;;;;;;;11.60;6.30;;;30.40;35.00;;;;;;5066027;28;20423;-71
2022/08/26 12:24:07;;;;;;;12.47;6.13;;;30.50;35.00;;;;;;5060281;28;20579;-71
2022/08/26 12:27:14;;;;;;;9.30;6.27;;;30.60;33.40;;;;;;5067532;28;20518;-71
2022/08/26 12:30:06;;;;;;;11.13;7.17;;;30.80;33.90;;;;;;5067898;28;20816;-71
2022/08/26 12:33:03;;;;;;;12.20;7.50;;;31.00;32.40;;;;;;5060463;28;20524;-71
2022/08/26 12:35:48;;;;;;;14.23;6.97;;;31.20;32.40;;;;;;5065697;28;20418;-71
2022/08/26 12:38:39;;;;;;;11.50;6.50;;;31.30;31.50;;;;;;5068872;28;20443;-71
2022/08/26 12:41:47;;;;;;;12.50;7.00;;;31.20;31.00;;;;;;5068250;28;20434;-71
2022/08/26 12:44:44;;;;;;;10.50;7.10;;;31.30;32.40;;;;;;5070867;28;20479;-71
2022/08/26 12:47:33;;;;;;;13.33;7.60;;;31.40;31.30;;;;;;5067535;28;20446;-71
2022/08/26 12:50:22;;;;;;;14.87;6.97;;;31.60;30.70;;;;;;5071106;28;20967;-71
2022/08/26 12:53:20;;;;;;;19.90;6.77;;;31.80;29.90;;;;;;5065700;28;20447;-71
2022/08/26 12:56:21;;;;;;;16.37;6.30;;;31.90;30.00;;;;;;5067607;28;20786;-71
2022/08/26 12:59:19;;;;;;;16.20;6.90;;;32.10;29.70;;;;;;5061565;28;20435;-71
2022/08/26 13:02:04;;;;;;;13.27;6.73;;;32.20;28.00;;;;;;5063585;28;21014;-71
2022/08/26 13:04:58;;;;;;;14.43;7.10;;;32.10;27.90;;;;;;5067142;28;20565;-71
2022/08/26 13:07:43;;;;;;;12.20;6.53;;;31.80;28.00;;;;;;5067582;28;21026;-71
2022/08/26 13:10:35;;;;;;;11.90;7.97;;;31.60;29.00;;;;;;5062764;28;20467;-71
2022/08/26 13:13:22;;;;;;;15.10;6.97;;;31.40;27.60;;;;;;5062286;28;20816;-71
2022/08/26 13:16:08;;;;;;;9.30;7.20;;;31.20;28.80;;;;;;5068244;28;20930;-71
2022/08/26 13:18:57;;;;;;;13.40;8.57;;;31.20;28.10;;;;;;5059307;28;20440;-71
2022/08/26 13:21:46;;;;;;;11.03;6.90;;;31.30;28.10;;;;;;5066738;28;20589;-71
2022/08/26 13:24:34;;;;;;;17.17;7.10;;;31.50;28.30;;;;;;5065560;28;20620;-71
2022/08/26 13:27:22;;;;;;;19.20;7.43;;;31.70;27.10;;;;;;5067606;28;20847;-71
2022/08/26 13:30:11;;;;;;;28.40;7.87;;;31.60;26.80;;;;;;5068891;28;20456;-71
2022/08/26 13:32:59;;;;;;;14.33;7.23;;;31.40;27.90;;;;;;5065990;28;20435;-71
2022/08/26 13:35:45;;;;;;;12.97;6.43;;;31.40;28.10;;;;;;5069862;28;20903;-71
2022/08/26 13:38:30;;;;;;;10.80;7.07;;;31.50;29.00;;;;;;5069093;28;20474;-71
2022/08/26 13:41:17;;;;;;;10.80;6.83;;;31.70;27.00;;;;;;5060137;28;20443;-71
2022/08/26 13:44:03;;;;;;;12.80;6.40;;;32.00;27.10;;;;;;5061534;28;20467;-71
2022/08/26 13:46:50;;;;;;;11.37;7.00;;;32.20;26.30;;;;;;5067313;28;21005;-71
2022/08/26 13:49:36;;;;;;;11.23;6.53;;;32.20;26.60;;;;;;5064734;28;20524;-71
2022/08/26 13:52:21;;;;;;;13.10;6.77;;;32.00;25.60;;;;;;5064299;28;20605;-71
2022/08/26 13:55:08;;;;;;;14.83;6.57;;;31.70;26.40;;;;;;5063208;28;20451;-71
2022/08/26 13:57:54;;;;;;;11.63;7.20;;;31.30;26.80;;;;;;5061718;28;20462;-71
2022/08/26 14:00:40;;;;;;;12.83;7.23;;;31.00;27.80;;;;;;5065821;28;20476;-71
2022/08/26 14:03:27;;;;;;;19.00;7.77;;;30.70;27.80;;;;;;5063986;28;20452;-71
2022/08/26 14:06:13;;;;;;;16.50;6.50;;;30.50;28.30;;;;;;5065280;28;20446;-71
2022/08/26 14:08:59;;;;;;;10.80;7.60;;;30.30;28.70;;;;;;5065069;28;20848;-71
2022/08/26 14:11:44;;;;;;;14.33;7.70;;;30.20;29.10;;;;;;5063093;28;20445;-71
2022/08/26 14:14:30;;;;;;;13.03;6.80;;;30.10;29.40;;;;;;5061337;28;20450;-70
2022/08/26 14:17:19;;;;;;;14.13;7.10;;;30.00;29.10;;;;;;5062642;28;20509;-70
2022/08/26 14:20:09;;;;;;;10.50;7.37;;;29.80;29.90;;;;;;5062751;28;20451;-70
2022/08/26 14:22:55;;;;;;;8.43;6.20;;;29.70;30.30;;;;;;5064160;28;20456;-70
2022/08/26 14:25:41;;;;;;;15.90;7.03;;;29.60;30.80;;;;;;5062603;28;20458;-70
2022/08/26 14:28:27;;;;;;;11.67;6.90;;;29.60;31.90;;;;;;5068021;28;20540;-70